ADDS METAR Data INFO
IDs: Format: Raw Decoded Include TAF

Data at: 2052 UTC 24 Jun 2017

KLND 241953Z AUTO VRB03KT 10SM CLR 20/01 A3032 RMK AO2 SLP224 T02000006
KLND 241853Z AUTO 10008KT 10SM CLR 20/02 A3034 RMK AO2 SLP229 T02000022
KLND 241753Z AUTO VRB03KT 10SM CLR 17/01 A3036 RMK AO2 SLP238 T01720006 10189 20061 58004
KLND 241653Z AUTO 31004KT 10SM CLR 17/01 A3036 RMK AO2 SLP237 T01670006
KLND 241553Z AUTO 33003KT 10SM CLR 16/02 A3037 RMK AO2 SLP239 T01560017
KLND 241453Z AUTO 01005KT 10SM CLR 14/03 A3037 RMK AO2 SLP240 T01390028 51007
KLND 241353Z AUTO 33004KT 10SM CLR 12/01 A3037 RMK AO2 SLP239 T01170011
KLND 241253Z AUTO 27004KT 10SM CLR 09/01 A3036 RMK AO2 SLP239 T00940006
KLND 241153Z AUTO 00000KT 10SM CLR 07/00 A3034 RMK AO2 SLP236 T00720000 10117 20044 53003
KLND 241053Z AUTO VRB03KT 10SM CLR 07/00 A3032 RMK AO2 SLP230 T00670000
KLND 240953Z AUTO 25010KT 10SM CLR 08/00 A3032 RMK AO2 SLP227 T00830000
KLND 240853Z AUTO 28007KT 10SM CLR 08/00 A3033 RMK AO2 SLP232 T00830000 50003
KLND 240753Z AUTO 27009KT 10SM CLR 10/00 A3033 RMK AO2 SLP230 T01000000
KLND 240653Z AUTO 26009KT 10SM CLR 11/M01 A3033 RMK AO2 SLP230 T01061006 402110056
KLND 240553Z AUTO 26006KT 10SM CLR 12/00 A3032 RMK AO2 SLP229 T01170000 10206 20117 51019
KLND 240453Z AUTO 25009KT 10SM CLR 13/00 A3031 RMK AO2 SLP224 T01280000
KLND 240353Z AUTO 26009KT 10SM CLR 14/01 A3029 RMK AO2 SLP217 T01390011
KLND 240253Z AUTO 33005KT 10SM CLR 16/00 A3026 RMK AO2 SLP203 T01610000 53016
KLND 240153Z AUTO 04009KT 10SM CLR 18/02 A3023 RMK AO2 SLP196 T01780017
KLND 240053Z AUTO 03009KT 10SM CLR 19/02 A3021 RMK AO2 SLP190 T01940017
KLND 232353Z AUTO 00000KT 10SM CLR 20/02 A3020 RMK AO2 SLP191 T02000022 10211 20150 56007
KLND 232253Z AUTO VRB04KT 10SM CLR 21/02 A3021 RMK AO2 SLP188 T02110022
KLND 232153Z AUTO 03005KT 10SM CLR 20/02 A3022 RMK AO2 SLP191 T02000022
KLND 232053Z AUTO VRB03KT 10SM CLR 19/02 A3023 RMK AO2 SLP195 T01890022 56017
KLND 231953Z AUTO VRB06KT 10SM CLR 18/02 A3024 RMK AO2 SLP197 T01830017
KLND 231853Z AUTO VRB04KT 10SM CLR 17/02 A3026 RMK AO2 SLP204 T01720017
KLND 231753Z AUTO 01007KT 10SM CLR 16/01 A3029 RMK AO2 SLP214 T01560006 10161 20056 58007
KLND 231653Z AUTO VRB04KT 10SM CLR 14/01 A3030 RMK AO2 SLP218 T01440006
KLND 231553Z AUTO VRB03KT 10SM FEW043 13/01 A3030 RMK AO2 SLP217 T01330011
KLND 231453Z AUTO 04003KT 10SM CLR 12/01 A3031 RMK AO2 SLP219 T01220006 50000
KLND 231353Z AUTO 00000KT 10SM CLR 10/02 A3031 RMK AO2 SLP220 T01000017
KLND 231253Z AUTO 00000KT 10SM CLR 08/01 A3031 RMK AO2 SLP216 T00780011
KLND 231153Z AUTO 00000KT 10SM CLR 06/00 A3031 RMK AO2 SLP215 T00560000 10128 20056 55001
KLND 231053Z AUTO 24004KT 10SM CLR 07/00 A3031 RMK AO2 SLP213 T00670000
KLND 230953Z AUTO 00000KT 10SM CLR 07/00 A3031 RMK AO2 SLP213 T00720000
KLND 230853Z AUTO VRB03KT 10SM CLR 09/00 A3031 RMK AO2 SLP213 T00890000 51017


Page loaded:  20:52 UTC  |   01:52 PM Pacific  |   02:52 PM Mountain  |   03:52 PM Central  |   04:52 PM Eastern

 

ADVISORIES

FORECASTS

FORECASTS

OBSERVATIONS

USER TOOLS

ABOUT US